Time;durP1;ratioP1;P1;durP2;ratioP2;P2;SDS_P1;SDS_P2;PMS_P1;PMS_P2;Temp;Humidity;BMP_temperature;BMP_pressure;BME280_temperature;BME280_humidity;BME280_pressure;Samples;Min_cycle;Max_cycle;Signal;HPM_P1;HPM_P2
2022/05/02 00:01:07;;;;;;;36.30;18.85;;;;;;;6.92;100.00;102077.34;5205095;28;20021;-71
2022/05/02 00:03:37;;;;;;;42.25;19.83;;;;;;;6.91;100.00;102074.78;5205560;28;20063;-72
2022/05/02 00:06:08;;;;;;;37.75;18.95;;;;;;;6.88;100.00;102080.38;5204153;28;20108;-72
2022/05/02 00:08:38;;;;;;;33.35;18.02;;;;;;;6.83;100.00;102071.81;5204970;28;20030;-72
2022/05/02 00:11:09;;;;;;;43.17;19.63;;;;;;;6.78;100.00;102076.66;5205009;28;20031;-71
2022/05/02 00:13:40;;;;;;;45.83;19.63;;;;;;;6.73;100.00;102080.53;5204947;28;20029;-71
2022/05/02 00:16:10;;;;;;;40.75;20.23;;;;;;;6.70;100.00;102086.06;5204240;28;20103;-70
2022/05/02 00:18:41;;;;;;;40.53;19.77;;;;;;;6.67;100.00;102080.94;5204509;28;20033;-70
2022/05/02 00:21:11;;;;;;;40.13;20.50;;;;;;;6.64;100.00;102080.34;5204669;28;20029;-70
2022/05/02 00:23:41;;;;;;;41.85;20.63;;;;;;;6.62;100.00;102072.41;5205052;28;20021;-70
2022/05/02 00:26:12;;;;;;;47.42;20.33;;;;;;;6.61;100.00;102070.72;5204617;28;20053;-70
2022/05/02 00:28:42;;;;;;;40.72;20.92;;;;;;;6.57;100.00;102071.06;5204328;28;20029;-70
2022/05/02 00:31:13;;;;;;;41.17;20.40;;;;;;;6.51;100.00;102066.16;5204785;28;20041;-70
2022/05/02 00:33:43;;;;;;;38.58;19.55;;;;;;;6.43;100.00;102067.59;5204658;28;20021;-70
2022/05/02 00:36:15;;;;;;;40.15;19.95;;;;;;;6.37;100.00;102060.00;5201847;28;20033;-70
2022/05/02 00:38:46;;;;;;;38.10;19.58;;;;;;;6.30;100.00;102061.41;5191247;28;20028;-70
2022/05/02 00:41:18;;;;;;;41.28;19.45;;;;;;;6.24;100.00;102061.84;5202361;28;20028;-71
2022/05/02 00:43:49;;;;;;;46.47;20.33;;;;;;;6.20;100.00;102065.69;5204394;28;20036;-70
2022/05/02 00:46:21;;;;;;;47.70;21.67;;;;;;;6.16;100.00;102058.88;5203907;28;20051;-70
2022/05/02 00:48:53;;;;;;;40.80;19.80;;;;;;;6.13;100.00;102051.09;5204121;28;20032;-71
2022/05/02 00:51:23;;;;;;;45.63;20.90;;;;;;;6.10;100.00;102051.31;5203162;28;20084;-70
2022/05/02 00:53:54;;;;;;;43.20;20.17;;;;;;;6.04;100.00;102055.25;5203659;28;20033;-71
2022/05/02 00:56:24;;;;;;;41.28;21.02;;;;;;;6.02;100.00;102057.16;5204205;28;20021;-70
2022/05/02 00:58:55;;;;;;;46.42;21.02;;;;;;;5.97;100.00;102049.53;5204039;28;20586;-70
2022/05/02 01:01:25;;;;;;;44.35;21.73;;;;;;;5.94;100.00;102051.53;5204225;28;20021;-70
2022/05/02 01:03:56;;;;;;;46.50;22.38;;;;;;;5.92;100.00;102046.31;5204393;28;20037;-70
2022/05/02 01:09:18;;;;;;;52.40;22.65;;;;;;;5.83;100.00;102046.94;5192582;28;20032;-71
2022/05/02 01:11:48;;;;;;;47.63;22.13;;;;;;;5.80;100.00;102046.28;5204143;28;20021;-71
2022/05/02 01:14:19;;;;;;;44.75;22.40;;;;;;;5.79;100.00;102052.56;5203663;28;20021;-71
2022/05/02 01:16:50;;;;;;;46.25;21.42;;;;;;;5.77;100.00;102047.31;5203693;28;20033;-71
2022/05/02 01:19:20;;;;;;;45.75;23.42;;;;;;;5.76;100.00;102047.44;5204275;28;20063;-70
2022/05/02 01:21:51;;;;;;;52.55;22.35;;;;;;;5.73;100.00;102048.53;5202779;28;20117;-70
2022/05/02 01:24:39;;;;;;;50.83;23.80;;;;;;;5.71;100.00;102043.28;5203471;28;20029;-71
2022/05/02 01:27:29;;;;;;;52.60;23.67;;;;;;;5.69;100.00;102039.88;5202836;28;20195;-71
2022/05/02 01:30:00;;;;;;;50.15;24.23;;;;;;;5.71;100.00;102043.28;5203706;28;20109;-70
2022/05/02 01:32:30;;;;;;;48.53;24.10;;;;;;;5.75;100.00;102045.75;5204060;28;20223;-70
2022/05/02 01:35:01;;;;;;;55.60;23.98;;;;;;;5.75;100.00;102043.94;5203641;28;20412;-70
2022/05/02 01:37:31;;;;;;;45.65;23.10;;;;;;;5.75;100.00;102035.94;5199881;28;20032;-71
2022/05/02 01:40:02;;;;;;;52.60;24.73;;;;;;;5.74;100.00;102044.03;5203799;28;20021;-71
2022/05/02 01:42:33;;;;;;;47.80;23.08;;;;;;;5.71;100.00;102047.75;5203805;28;20021;-72
2022/05/02 01:45:04;;;;;;;51.17;23.90;;;;;;;5.68;100.00;102035.53;5203897;28;20049;-71
2022/05/02 01:47:35;;;;;;;50.75;23.73;;;;;;;5.67;100.00;102043.59;5204304;28;20021;-70
2022/05/02 01:50:06;;;;;;;47.10;24.48;;;;;;;5.67;100.00;102036.47;5203350;28;20029;-70
2022/05/02 01:52:37;;;;;;;54.97;25.60;;;;;;;5.71;100.00;102040.63;5204051;28;20525;-70
2022/05/02 01:55:08;;;;;;;55.08;27.20;;;;;;;5.75;100.00;102041.25;5203562;28;20025;-71
2022/05/02 01:57:39;;;;;;;49.78;24.83;;;;;;;5.75;100.00;102043.94;5203557;28;20052;-71
2022/05/02 02:00:11;;;;;;;49.05;24.48;;;;;;;5.78;100.00;102032.22;5203540;28;20013;-71
2022/05/02 02:02:41;;;;;;;45.88;23.17;;;;;;;5.78;100.00;102029.56;5203184;28;20095;-71
2022/05/02 02:08:02;;;;;;;50.42;24.90;;;;;;;5.74;100.00;102031.56;5203627;28;20033;-71
2022/05/02 02:10:33;;;;;;;55.08;24.73;;;;;;;5.76;100.00;102034.97;5203429;28;20089;-70
2022/05/02 02:13:05;;;;;;;52.92;23.67;;;;;;;5.74;100.00;102031.56;5203709;28;20048;-70
2022/05/02 02:15:35;;;;;;;54.20;24.73;;;;;;;5.71;100.00;102026.44;5203113;28;20083;-70
2022/05/02 02:18:06;;;;;;;57.10;25.05;;;;;;;5.65;100.00;102026.88;5203478;28;20483;-70
2022/05/02 02:20:40;;;;;;;50.08;24.02;;;;;;;5.58;100.00;102025.63;5203848;28;20486;-70
2022/05/02 02:23:11;;;;;;;58.83;23.90;;;;;;;5.55;100.00;102025.81;5203351;28;20079;-70
2022/05/02 02:25:42;;;;;;;53.03;24.55;;;;;;;5.52;100.00;102031.31;5202955;28;20124;-70
2022/05/02 02:28:14;;;;;;;54.42;23.33;;;;;;;5.48;100.00;102027.19;5203220;28;20441;-70
2022/05/02 02:30:45;;;;;;;48.92;23.27;;;;;;;5.45;100.00;102023.78;5203154;28;20036;-70
2022/05/02 02:33:16;;;;;;;46.85;22.60;;;;;;;5.45;100.00;102023.78;5203435;28;20028;-70
2022/05/02 02:35:46;;;;;;;46.60;24.15;;;;;;;5.44;100.00;102016.75;5201693;28;20030;-70
2022/05/02 02:38:17;;;;;;;46.55;23.10;;;;;;;5.43;100.00;102031.03;5198181;28;20034;-71
2022/05/02 02:40:47;;;;;;;49.97;23.40;;;;;;;5.42;100.00;102024.00;5201293;28;20536;-70
2022/05/02 02:43:18;;;;;;;54.65;24.48;;;;;;;5.37;100.00;102023.47;5207007;28;20033;-70
2022/05/02 02:45:48;;;;;;;47.67;24.13;;;;;;;5.31;100.00;102015.88;5206673;28;20022;-70
2022/05/02 02:48:19;;;;;;;51.53;25.05;;;;;;;5.23;100.00;102012.88;5206780;28;20028;-71
2022/05/02 02:50:49;;;;;;;49.97;24.38;;;;;;;5.16;100.00;102009.75;5206602;28;20021;-70
2022/05/02 02:53:20;;;;;;;49.80;23.02;;;;;;;5.05;100.00;102009.63;5206912;28;20505;-69
2022/05/02 02:55:50;;;;;;;60.22;24.73;;;;;;;4.94;100.00;102010.34;5206462;28;20092;-69
2022/05/02 02:58:21;;;;;;;44.30;21.58;;;;;;;4.83;100.00;102007.56;5206772;28;20061;-69
2022/05/02 03:00:52;;;;;;;49.13;23.83;;;;;;;4.77;100.00;102002.66;5206332;28;20021;-69
2022/05/02 03:03:22;;;;;;;45.17;22.67;;;;;;;4.72;100.00;102001.22;5206788;28;20026;-69
2022/05/02 03:06:04;;;;;;;56.58;25.23;;;;;;;4.70;100.00;102006.66;5206229;28;20159;-69
2022/05/02 03:08:36;;;;;;;48.50;24.00;;;;;;;4.73;100.00;101997.63;5206344;28;20103;-69
2022/05/02 03:11:07;;;;;;;51.90;24.33;;;;;;;4.80;100.00;101990.94;5206437;28;20546;-69
2022/05/02 03:13:37;;;;;;;52.13;23.50;;;;;;;4.89;100.00;101993.00;5206058;28;20025;-69
2022/05/02 03:16:10;;;;;;;50.60;23.30;;;;;;;4.93;100.00;101995.34;5205924;28;20053;-69
2022/05/02 03:18:40;;;;;;;46.65;23.42;;;;;;;4.94;100.00;101993.56;5206210;28;20022;-69
2022/05/02 03:21:11;;;;;;;47.75;21.58;;;;;;;4.87;100.00;101998.44;5206196;28;20025;-69
2022/05/02 03:23:41;;;;;;;41.45;19.83;;;;;;;4.72;100.00;101998.56;5206093;28;20053;-69
2022/05/02 03:26:12;;;;;;;52.47;22.63;;;;;;;4.50;100.00;102005.28;5205766;28;20061;-69
2022/05/02 03:28:42;;;;;;;37.20;19.67;;;;;;;4.35;100.00;102003.59;5206165;28;20033;-69
2022/05/02 03:31:13;;;;;;;46.92;22.20;;;;;;;4.13;100.00;102001.47;5205900;28;20104;-69
2022/05/02 03:33:43;;;;;;;51.47;24.85;;;;;;;4.01;100.00;102002.22;5206189;28;20026;-69
2022/05/02 03:36:14;;;;;;;54.92;26.30;;;;;;;3.96;100.00;102006.97;5203853;28;20060;-69
2022/05/02 03:38:44;;;;;;;58.33;25.95;;;;;;;3.93;100.00;102005.38;5192700;28;20053;-68
2022/05/02 03:41:15;;;;;;;69.65;28.90;;;;;;;3.91;100.00;102001.94;5203946;28;20021;-69
2022/05/02 03:43:45;;;;;;;69.40;26.05;;;;;;;3.90;100.00;102001.06;5205891;28;20053;-69
2022/05/02 03:46:16;;;;;;;67.47;26.52;;;;;;;3.89;100.00;101999.38;5205610;28;20060;-69
2022/05/02 03:48:46;;;;;;;55.08;25.80;;;;;;;3.90;100.00;102008.19;5205129;28;20021;-69
2022/05/02 03:51:17;;;;;;;65.20;28.60;;;;;;;3.90;100.00;101997.56;5205645;28;20091;-69
2022/05/02 03:53:47;;;;;;;59.40;26.85;;;;;;;3.86;100.00;101990.75;5205617;28;20029;-69
2022/05/02 03:56:18;;;;;;;53.25;25.55;;;;;;;3.83;100.00;101997.09;5204075;28;20368;-69
2022/05/02 03:58:48;;;;;;;48.17;22.02;;;;;;;3.80;100.00;101997.28;5205551;28;20448;-69
2022/05/02 04:01:19;;;;;;;51.28;23.65;;;;;;;3.82;100.00;101994.56;5205266;28;20026;-69
2022/05/02 04:03:49;;;;;;;53.05;25.38;;;;;;;3.84;100.00;101995.31;5205421;28;20096;-69
2022/05/02 04:06:20;;;;;;;49.15;24.05;;;;;;;3.85;100.00;101995.19;5204971;28;20453;-69
2022/05/02 04:08:51;;;;;;;62.97;25.55;;;;;;;3.84;100.00;101995.31;5205050;28;20071;-69
2022/05/02 04:11:21;;;;;;;51.90;24.45;;;;;;;3.82;100.00;101991.91;5205179;28;20025;-69
2022/05/02 04:13:52;;;;;;;52.20;23.83;;;;;;;3.84;100.00;101996.16;5204633;28;20487;-69
2022/05/02 04:16:23;;;;;;;58.40;26.90;;;;;;;3.85;100.00;101992.53;5204872;28;20049;-70
2022/05/02 04:18:53;;;;;;;53.47;24.77;;;;;;;3.87;100.00;101992.47;5205121;28;20075;-69
2022/05/02 04:21:24;;;;;;;52.00;24.52;;;;;;;3.86;100.00;102001.34;5204958;28;20025;-69
2022/05/02 04:23:54;;;;;;;58.17;25.02;;;;;;;3.83;100.00;101999.75;5205163;28;20053;-69
2022/05/02 04:26:25;;;;;;;51.63;24.65;;;;;;;3.75;100.00;102001.19;5204311;28;20030;-69
2022/05/02 04:28:55;;;;;;;55.67;26.13;;;;;;;3.68;100.00;102006.00;5205006;28;20080;-69
2022/05/02 04:31:26;;;;;;;58.80;24.30;;;;;;;3.62;100.00;102004.59;5204859;28;20025;-69
2022/05/02 04:33:56;;;;;;;54.90;24.50;;;;;;;3.55;100.00;102005.88;5205321;28;20157;-69
2022/05/02 04:36:27;;;;;;;56.35;25.98;;;;;;;3.51;100.00;102007.00;5204141;28;20120;-69
2022/05/02 04:38:57;;;;;;;48.80;24.35;;;;;;;3.45;100.00;102009.19;5189252;28;20105;-69
2022/05/02 04:41:28;;;;;;;69.28;28.40;;;;;;;3.45;100.00;102014.50;5204594;28;20021;-69
2022/05/02 04:43:58;;;;;;;65.90;29.13;;;;;;;3.44;100.00;102012.78;5204601;28;20022;-69
2022/05/02 04:46:29;;;;;;;57.67;26.42;;;;;;;3.44;100.00;102020.75;5204589;28;20108;-69
2022/05/02 04:48:59;;;;;;;60.55;27.33;;;;;;;3.43;100.00;102017.25;5204315;28;20045;-69
2022/05/02 04:51:30;;;;;;;62.45;27.20;;;;;;;3.44;100.00;102007.50;5204091;28;20067;-69
2022/05/02 04:54:00;;;;;;;62.03;28.05;;;;;;;3.48;100.00;102015.19;5204220;28;20112;-69
2022/05/02 04:56:31;;;;;;;59.80;26.88;;;;;;;3.53;100.00;102017.56;5204254;28;20479;-69
2022/05/02 04:59:04;;;;;;;55.70;26.33;;;;;;;3.56;100.00;102009.41;5203690;28;20506;-69
2022/05/02 05:01:34;;;;;;;59.67;25.42;;;;;;;3.62;100.00;102020.50;5204408;28;20493;-69
2022/05/02 05:04:05;;;;;;;50.28;24.88;;;;;;;3.69;100.00;102018.34;5203925;28;20029;-69
2022/05/02 05:06:36;;;;;;;58.90;24.27;;;;;;;3.77;100.00;102024.03;5204465;28;20328;-69
2022/05/02 05:09:06;;;;;;;55.08;25.33;;;;;;;3.84;100.00;102011.22;5189529;28;20034;-69
2022/05/02 05:12:00;;;;;;;58.88;27.63;;;;;;;3.92;100.00;102014.28;5204270;28;20439;-69
2022/05/02 05:18:17;;;;;;;58.40;26.97;;;;;;;4.13;100.00;102004.13;5197139;28;20041;-69
2022/05/02 05:20:59;;;;;;;72.82;30.58;;;;;;;4.25;100.00;102016.63;5203769;28;20268;-69
2022/05/02 05:23:48;;;;;;;59.60;29.30;;;;;;;4.39;100.00;102008.63;5204038;28;20029;-69
2022/05/02 05:26:35;;;;;;;59.15;25.33;;;;;;;4.54;100.00;102005.94;5203754;28;20100;-69
2022/05/02 05:29:28;;;;;;;55.72;25.75;;;;;;;4.61;100.00;102009.91;5203623;28;20391;-69
2022/05/02 05:32:28;;;;;;;58.75;27.05;;;;;;;4.74;100.00;102013.47;5192530;28;20092;-69
2022/05/02 05:35:36;;;;;;;55.70;27.05;;;;;;;4.87;100.00;102014.38;5203373;28;20244;-69
2022/05/02 05:38:10;;;;;;;63.85;27.38;;;;;;;5.08;100.00;102017.44;5194618;28;20557;-69
2022/05/02 05:40:42;;;;;;;62.53;28.67;;;;;;;5.29;100.00;102014.28;5197341;28;20025;-69
2022/05/02 05:43:31;;;;;;;65.90;30.63;;;;;;;5.56;100.00;102020.38;5203864;28;20288;-69
2022/05/02 05:46:20;;;;;;;59.60;29.48;;;;;;;5.82;100.00;102015.91;5203661;28;20056;-69
2022/05/02 05:49:27;;;;;;;62.75;29.00;;;;;;;6.13;100.00;102009.31;5203674;28;20437;-69
2022/05/02 05:52:23;;;;;;;57.45;28.55;;;;;;;6.70;100.00;102018.53;5203296;28;20437;-69
2022/05/02 05:55:04;;;;;;;54.30;26.75;;;;;;;7.65;100.00;102014.91;5203686;28;20449;-69
2022/05/02 05:57:47;;;;;;;52.90;25.95;;;;;;;8.48;100.00;102011.91;5203788;28;20021;-69
2022/05/02 06:00:18;;;;;;;53.28;25.42;;;;;;;9.39;100.00;102015.09;5203253;28;20071;-69
2022/05/02 06:03:26;;;;;;;46.35;23.90;;;;;;;10.14;100.00;102014.84;5203582;28;20060;-70
2022/05/02 06:05:56;;;;;;;49.35;24.13;;;;;;;10.96;100.00;102011.09;5191219;28;20034;-70
2022/05/02 06:08:29;;;;;;;43.42;24.55;;;;;;;11.39;100.00;102006.09;5202956;28;20479;-70
2022/05/02 06:11:01;;;;;;;42.35;24.15;;;;;;;12.04;100.00;102008.09;5205727;28;20050;-70
2022/05/02 06:13:33;;;;;;;43.67;24.83;;;;;;;12.43;100.00;102006.09;5207617;28;20032;-70
2022/05/02 06:19:00;;;;;;;43.72;23.55;;;;;;;13.11;100.00;102006.47;5207269;28;20512;-71
2022/05/02 06:21:32;;;;;;;36.75;21.60;;;;;;;13.67;100.00;102018.72;5207128;28;20046;-70
2022/05/02 06:24:04;;;;;;;37.55;23.35;;;;;;;13.93;100.00;102018.72;5207480;28;20040;-71
2022/05/02 06:26:37;;;;;;;35.85;23.98;;;;;;;14.29;100.00;102021.25;5207029;28;20033;-71
2022/05/02 06:29:09;;;;;;;37.60;22.38;;;;;;;14.31;100.00;102019.28;5207461;28;20022;-71
2022/05/02 06:31:43;;;;;;;34.67;21.92;;;;;;;14.49;100.00;102021.88;5207125;28;20037;-71
2022/05/02 06:34:15;;;;;;;38.53;21.67;;;;;;;14.92;100.00;102019.97;5206889;28;20033;-71
2022/05/02 06:36:49;;;;;;;31.25;19.75;;;;;;;15.44;100.00;102019.66;5206041;28;20434;-71
2022/05/02 06:39:44;;;;;;;36.57;20.30;;;;;;;15.88;100.00;102016.59;5192047;28;20026;-71
2022/05/02 06:42:52;;;;;;;38.28;20.15;;;;;;;16.51;100.00;102018.38;5206929;28;20120;-71
2022/05/02 06:45:29;;;;;;;30.65;19.20;;;;;;;16.94;100.00;102021.56;5206798;28;20028;-71
2022/05/02 06:48:22;;;;;;;33.95;19.48;;;;;;;17.62;88.46;102023.41;5194101;28;20032;-71
2022/05/02 06:50:57;;;;;;;29.30;18.63;;;;;;;17.35;95.58;102024.81;5206477;28;20028;-71
2022/05/02 06:53:44;;;;;;;37.35;19.10;;;;;;;17.42;93.91;102024.91;5206851;28;20018;-71
2022/05/02 06:56:45;;;;;;;30.70;19.25;;;;;;;17.70;92.99;102025.19;5206320;28;20382;-71
2022/05/02 06:59:32;;;;;;;28.75;18.83;;;;;;;17.92;90.38;102026.16;5206606;28;20017;-71
2022/05/02 07:02:20;;;;;;;26.45;18.00;;;;;;;18.21;87.50;102028.91;5206637;28;20120;-71
2022/05/02 07:04:52;;;;;;;27.05;17.33;;;;;;;18.51;79.62;102018.84;5204880;28;20029;-71
2022/05/02 07:07:57;;;;;;;27.45;18.48;;;;;;;18.21;79.19;102018.03;5206378;28;20029;-71
2022/05/02 07:10:33;;;;;;;30.25;16.75;;;;;;;17.93;77.00;102020.56;5206335;28;20551;-71
2022/05/02 07:13:41;;;;;;;31.15;17.42;;;;;;;17.94;75.22;102026.84;5206244;28;20033;-72
2022/05/02 07:16:32;;;;;;;29.10;17.90;;;;;;;17.95;74.52;102023.94;5205684;28;20060;-71
2022/05/02 07:19:28;;;;;;;26.80;17.30;;;;;;;17.96;74.64;102024.78;5194973;28;20026;-71
2022/05/02 07:22:02;;;;;;;27.88;17.65;;;;;;;18.26;75.31;102021.03;5205803;28;20026;-71
2022/05/02 07:24:53;;;;;;;30.73;15.88;;;;;;;18.59;78.28;102020.63;5206070;28;20040;-71
2022/05/02 07:27:44;;;;;;;25.38;16.02;;;;;;;18.69;68.99;102015.75;5206156;28;20108;-71
2022/05/02 07:30:15;;;;;;;26.27;16.73;;;;;;;18.46;68.58;102021.28;5206098;28;20037;-71
2022/05/02 07:32:45;;;;;;;30.65;16.65;;;;;;;18.95;72.11;102007.03;5206109;28;20025;-71
2022/05/02 07:35:16;;;;;;;22.88;15.52;;;;;;;19.42;71.59;102006.41;5205878;28;20029;-71
2022/05/02 07:37:47;;;;;;;26.65;15.77;;;;;;;19.85;66.14;102009.09;5199571;28;20022;-72
2022/05/02 07:40:19;;;;;;;24.08;15.52;;;;;;;19.95;66.69;102005.16;5196155;28;20030;-71
2022/05/02 07:42:52;;;;;;;25.95;16.63;;;;;;;19.86;65.80;102012.66;5205811;28;20018;-71
2022/05/02 07:45:28;;;;;;;23.20;15.57;;;;;;;19.62;67.04;102009.31;5205600;28;20398;-72
2022/05/02 07:48:03;;;;;;;26.50;15.90;;;;;;;19.87;62.42;102012.44;5192725;28;20033;-71
2022/05/02 07:50:34;;;;;;;;;;;;;;;20.49;58.75;102004.44;5205617;28;20056;-71
2022/05/02 07:53:09;;;;;;;22.63;13.98;;;;;;;20.50;58.14;102006.94;5204579;28;19916;-71
2022/05/02 07:55:40;;;;;;;24.05;15.13;;;;;;;20.04;58.60;102009.41;5205362;28;20479;-71
2022/05/02 07:58:12;;;;;;;23.80;15.35;;;;;;;20.59;56.59;102005.72;5205693;28;20033;-72
2022/05/02 08:00:43;;;;;;;25.15;14.60;;;;;;;20.55;56.23;101999.00;5205414;28;20064;-71
2022/05/02 08:03:14;;;;;;;27.02;15.55;;;;;;;19.96;55.13;102007.69;5205222;28;20049;-72
2022/05/02 08:05:48;;;;;;;28.17;16.75;;;;;;;20.47;59.51;102006.50;5204864;28;20100;-72
2022/05/02 08:08:32;;;;;;;21.10;13.80;;;;;;;21.02;53.94;102001.84;5205543;28;20051;-71
2022/05/02 08:11:25;;;;;;;18.38;12.20;;;;;;;21.11;52.20;102001.44;5205241;28;20095;-72
2022/05/02 08:14:16;;;;;;;19.45;13.10;;;;;;;20.94;52.57;102005.63;5205354;28;20029;-71
2022/05/02 08:17:01;;;;;;;19.60;12.05;;;;;;;20.64;52.93;101996.94;5205284;28;20368;-71
2022/05/02 08:19:52;;;;;;;21.60;12.15;;;;;;;20.68;54.60;102006.34;5205001;28;20028;-71
2022/05/02 08:28:35;;;;;;;22.17;12.35;;;;;;;20.89;51.19;102008.13;5204874;28;20490;-72
2022/05/02 08:31:33;;;;;;;20.48;12.85;;;;;;;21.01;49.59;102000.16;5204794;28;20037;-72
2022/05/02 08:34:15;;;;;;;18.80;12.18;;;;;;;20.36;51.00;102002.44;5203940;28;20029;-71
2022/05/02 08:37:04;;;;;;;17.73;11.95;;;;;;;20.29;49.88;101996.13;5191921;28;20056;-72
2022/05/02 08:39:50;;;;;;;19.52;11.20;;;;;;;20.61;48.81;102000.91;5189900;28;20026;-72
2022/05/02 08:42:58;;;;;;;17.13;12.18;;;;;;;20.75;53.49;101998.22;5204626;28;20030;-72
2022/05/02 08:46:04;;;;;;;19.45;11.45;;;;;;;20.38;51.57;102001.22;5204183;28;20025;-71
2022/05/02 08:52:32;;;;;;;16.70;9.88;;;;;;;21.89;46.28;101996.19;5198457;28;20037;-72
2022/05/02 08:55:20;;;;;;;18.95;9.48;;;;;;;21.20;45.79;102004.81;5204046;28;20076;-72
2022/05/02 08:58:30;;;;;;;16.88;10.15;;;;;;;20.64;46.54;101991.47;5192920;28;20402;-72
2022/05/02 09:01:35;;;;;;;17.05;10.15;;;;;;;21.09;52.42;102002.69;5204482;28;20023;-72
2022/05/02 09:04:42;;;;;;;19.00;9.73;;;;;;;22.19;46.01;102004.75;5204204;28;20035;-72
2022/05/02 09:07:49;;;;;;;13.45;10.10;;;;;;;21.86;48.09;101996.59;5204136;28;20378;-72
2022/05/02 09:10:43;;;;;;;15.10;10.75;;;;;;;21.82;47.83;101992.59;5204019;28;20029;-72
2022/05/02 09:13:32;;;;;;;16.08;9.80;;;;;;;22.56;42.59;101988.59;5204463;28;20065;-72
2022/05/02 09:16:29;;;;;;;14.43;9.57;;;;;;;22.16;45.57;101994.22;5203412;28;20446;-72
2022/05/02 09:19:35;;;;;;;16.30;8.27;;;;;;;22.23;42.76;101994.19;5204153;28;20396;-72
2022/05/02 09:22:42;;;;;;;18.73;10.70;;;;;;;21.48;46.73;101984.66;5204213;28;20113;-72
2022/05/02 09:25:42;;;;;;;19.70;10.73;;;;;;;21.08;43.93;101984.63;5203819;28;20033;-72
2022/05/02 09:28:48;;;;;;;19.95;11.63;;;;;;;20.07;45.87;101987.22;5203822;28;20025;-72
2022/05/02 09:31:57;;;;;;;16.15;9.75;;;;;;;20.78;48.51;101974.09;5203830;28;20326;-72
2022/05/02 09:34:53;;;;;;;13.27;9.77;;;;;;;21.22;46.01;101978.13;5203637;28;20434;-72
2022/05/02 09:37:39;;;;;;;14.32;9.02;;;;;;;22.08;45.28;101985.41;5202153;28;20040;-72
2022/05/02 09:40:12;;;;;;;14.55;9.30;;;;;;;21.27;43.52;101977.50;5193551;28;20021;-72
2022/05/02 09:43:03;;;;;;;14.80;8.48;;;;;;;21.69;46.34;101979.84;5203755;28;20048;-72
2022/05/02 09:52:15;;;;;;;14.65;8.40;;;;;;;22.62;43.71;101967.75;5208184;28;20025;-72
2022/05/02 09:58:10;;;;;;;14.00;9.07;;;;;;;22.11;44.74;101972.19;5196523;28;20133;-72
2022/05/02 10:01:08;;;;;;;15.02;10.02;;;;;;;21.57;44.23;101961.56;5207647;28;20167;-72
2022/05/02 10:03:46;;;;;;;16.63;9.57;;;;;;;21.78;46.11;101964.03;5207765;28;20029;-72
2022/05/02 10:06:29;;;;;;;15.85;9.88;;;;;;;21.81;46.06;101965.50;5207415;28;20032;-72
2022/05/02 10:09:04;;;;;;;12.90;8.43;;;;;;;22.42;40.94;101959.66;5194281;28;20040;-72
2022/05/02 10:11:48;;;;;;;15.57;9.43;;;;;;;21.61;43.39;101951.91;5207662;28;20053;-72
2022/05/02 10:14:48;;;;;;;13.90;8.40;;;;;;;21.51;45.84;101962.41;5206929;28;20021;-72
2022/05/02 10:17:39;;;;;;;13.88;8.90;;;;;;;21.72;42.54;101956.69;5195674;28;20025;-72
2022/05/02 10:20:35;;;;;;;13.18;8.98;;;;;;;21.06;46.49;101943.09;5208064;28;20072;-72
2022/05/02 10:23:17;;;;;;;19.77;9.27;;;;;;;21.08;47.18;101954.63;5207416;28;20037;-72
2022/05/02 10:26:01;;;;;;;15.75;7.63;;;;;;;21.41;41.67;101949.19;5207120;28;20029;-71
2022/05/02 10:29:09;;;;;;;16.60;8.68;;;;;;;21.29;42.63;101948.13;5194129;28;20083;-72
2022/05/02 10:31:41;;;;;;;12.95;8.77;;;;;;;20.72;44.87;101930.44;5206108;28;20036;-72
2022/05/02 10:34:17;;;;;;;15.15;9.88;;;;;;;20.46;48.10;101947.56;5207158;28;20029;-72
2022/05/02 10:36:53;;;;;;;14.40;9.68;;;;;;;20.73;47.10;101938.41;5205866;28;20033;-72
2022/05/02 10:39:40;;;;;;;13.40;9.07;;;;;;;20.94;47.92;101931.97;5190539;28;20108;-72
2022/05/02 10:42:12;;;;;;;13.20;8.98;;;;;;;20.98;45.26;101935.94;5207141;28;20053;-72
2022/05/02 10:44:54;;;;;;;15.90;9.50;;;;;;;21.11;45.07;101940.56;5207196;28;20021;-72
2022/05/02 10:47:27;;;;;;;12.82;9.35;;;;;;;21.07;47.66;101940.13;5206788;28;20041;-72
2022/05/02 10:50:26;;;;;;;16.05;9.82;;;;;;;21.06;43.43;101935.72;5206749;28;20029;-72
2022/05/02 10:53:33;;;;;;;17.42;8.98;;;;;;;21.24;44.23;101935.13;5195169;28;20124;-72
2022/05/02 10:56:35;;;;;;;15.15;9.90;;;;;;;21.16;45.05;101929.84;5192792;28;20029;-72
2022/05/02 10:59:10;;;;;;;13.75;8.18;;;;;;;20.99;46.67;101932.19;5206423;28;20029;-72
2022/05/02 11:01:54;;;;;;;12.85;7.80;;;;;;;21.18;44.53;101930.47;5206621;28;20068;-72
2022/05/02 11:04:33;;;;;;;14.57;8.32;;;;;;;20.74;42.14;101923.75;5206069;28;20037;-72
2022/05/02 11:07:26;;;;;;;13.70;7.82;;;;;;;20.50;40.87;101914.25;5206792;28;20033;-72
2022/05/02 11:10:09;;;;;;;11.00;7.53;;;;;;;20.92;45.80;101921.25;5206439;28;20368;-72
2022/05/02 11:12:45;;;;;;;16.17;7.20;;;;;;;21.07;45.44;101922.94;5206155;28;20029;-72
2022/05/02 11:15:21;;;;;;;14.80;7.90;;;;;;;21.12;43.07;101925.88;5206124;28;20390;-72
2022/05/02 11:18:08;;;;;;;;;;;;;;;20.54;40.61;101911.97;5206921;28;20021;-72
2022/05/02 11:20:58;;;;;;;11.77;7.80;;;;;;;21.19;41.87;101916.66;5195300;28;20444;-72
2022/05/02 11:23:30;;;;;;;11.95;7.85;;;;;;;21.11;41.01;101908.66;5206759;28;20453;-72
2022/05/02 11:26:11;;;;;;;11.68;6.85;;;;;;;21.02;46.99;101917.25;5206360;28;20025;-71
2022/05/02 11:29:01;;;;;;;9.43;6.20;;;;;;;20.68;40.34;101903.63;5206213;28;20061;-72
2022/05/02 11:31:54;;;;;;;12.45;7.20;;;;;;;21.11;40.25;101903.19;5205779;28;20033;-72
2022/05/02 11:34:53;;;;;;;10.23;6.60;;;;;;;20.85;41.51;101901.31;5205797;28;20037;-71
2022/05/02 11:37:34;;;;;;;13.20;7.28;;;;;;;20.74;42.34;101907.41;5202602;28;20391;-71
2022/05/02 11:40:09;;;;;;;10.82;6.70;;;;;;;20.75;41.25;101898.16;5194843;28;20083;-71
2022/05/02 11:42:55;;;;;;;11.32;7.78;;;;;;;21.01;42.66;101902.78;5205902;28;20025;-71
2022/05/02 11:45:40;;;;;;;13.02;7.50;;;;;;;21.21;41.66;101905.50;5205665;28;20108;-71
2022/05/02 11:48:31;;;;;;;12.95;6.78;;;;;;;21.72;40.00;101900.19;5193977;28;20025;-71
2022/05/02 11:51:04;;;;;;;16.00;7.55;;;;;;;21.51;40.23;101895.00;5205538;28;20064;-72
2022/05/02 11:53:36;;;;;;;13.43;8.00;;;;;;;21.57;44.00;101890.56;5205573;28;20028;-72
2022/05/02 11:56:06;;;;;;;13.45;8.55;;;;;;;21.56;43.74;101892.47;5206037;28;20033;-72
2022/05/02 11:58:45;;;;;;;15.73;8.98;;;;;;;21.54;40.04;101885.56;5205227;28;20033;-72
2022/05/02 12:01:25;;;;;;;15.85;8.27;;;;;;;21.46;42.52;101887.44;5205842;28;20029;-72
2022/05/02 12:04:15;;;;;;;16.20;8.05;;;;;;;20.97;40.48;101878.88;5205387;28;20025;-72
2022/05/02 12:07:00;;;;;;;14.32;7.20;;;;;;;21.02;42.30;101870.88;5205048;28;20040;-72
2022/05/02 12:09:34;;;;;;;14.75;9.23;;;;;;;21.23;41.38;101873.38;5205134;28;20026;-71
2022/05/02 12:12:07;;;;;;;14.70;8.65;;;;;;;21.31;43.27;101875.09;5205410;28;20478;-72
2022/05/02 12:14:39;;;;;;;10.60;7.63;;;;;;;21.36;39.50;101875.28;5205171;28;20021;-72
2022/05/02 12:17:11;;;;;;;12.20;8.13;;;;;;;21.17;43.98;101874.22;5191523;28;20319;-72
2022/05/02 12:19:41;;;;;;;13.35;8.38;;;;;;;20.94;41.62;101875.53;5197044;28;20021;-72
2022/05/02 12:22:16;;;;;;;15.52;8.35;;;;;;;20.64;41.62;101868.78;5202684;28;20422;-72
2022/05/02 12:24:48;;;;;;;13.55;7.97;;;;;;;21.17;42.42;101875.06;5202199;28;20109;-72
2022/05/02 12:27:20;;;;;;;10.63;7.65;;;;;;;21.21;40.02;101861.84;5202037;28;20577;-72
2022/05/02 12:30:12;;;;;;;11.65;7.45;;;;;;;21.72;40.15;101864.69;5201252;28;20168;-72
2022/05/02 12:32:45;;;;;;;11.48;7.50;;;;;;;21.81;42.42;101865.28;5202721;28;20636;-72
2022/05/02 12:35:19;;;;;;;13.10;7.63;;;;;;;22.06;36.77;101870.03;5202231;28;20068;-72